sensor_id;sensor_type;location;lat;lon;timestamp;temperature;humidity
33476;DHT22;19814;48.224;11.422;2023-04-15T00:00:16;6.60;99.90
33476;DHT22;19814;48.224;11.422;2023-04-15T00:02:42;6.60;99.90
33476;DHT22;19814;48.224;11.422;2023-04-15T00:05:08;6.60;99.90
33476;DHT22;19814;48.224;11.422;2023-04-15T00:07:35;6.60;99.90
33476;DHT22;19814;48.224;11.422;2023-04-15T00:10:00;6.70;99.90
33476;DHT22;19814;48.224;11.422;2023-04-15T00:12:27;6.70;99.90
33476;DHT22;19814;48.224;11.422;2023-04-15T00:14:53;6.80;99.90
33476;DHT22;19814;48.224;11.422;2023-04-15T00:17:19;6.80;99.90
33476;DHT22;19814;48.224;11.422;2023-04-15T00:19:44;6.90;99.90
33476;DHT22;19814;48.224;11.422;2023-04-15T00:22:10;6.90;99.90
33476;DHT22;19814;48.224;11.422;2023-04-15T00:24:36;6.90;99.90
33476;DHT22;19814;48.224;11.422;2023-04-15T00:27:02;6.90;99.90
33476;DHT22;19814;48.224;11.422;2023-04-15T00:29:28;6.90;99.90
33476;DHT22;19814;48.224;11.422;2023-04-15T00:31:54;7.00;99.90
33476;DHT22;19814;48.224;11.422;2023-04-15T00:34:21;7.00;99.90
33476;DHT22;19814;48.224;11.422;2023-04-15T00:36:46;7.00;99.90
33476;DHT22;19814;48.224;11.422;2023-04-15T00:39:12;6.90;99.90
33476;DHT22;19814;48.224;11.422;2023-04-15T00:41:37;7.00;99.90
33476;DHT22;19814;48.224;11.422;2023-04-15T00:44:05;7.00;99.90
33476;DHT22;19814;48.224;11.422;2023-04-15T00:46:33;7.00;99.90
33476;DHT22;19814;48.224;11.422;2023-04-15T00:49:00;7.00;99.90
33476;DHT22;19814;48.224;11.422;2023-04-15T00:51:26;6.90;99.90
33476;DHT22;19814;48.224;11.422;2023-04-15T00:53:52;6.90;99.90
33476;DHT22;19814;48.224;11.422;2023-04-15T00:56:19;6.90;99.90
33476;DHT22;19814;48.224;11.422;2023-04-15T00:58:46;6.90;99.90
33476;DHT22;19814;48.224;11.422;2023-04-15T01:01:12;6.90;99.90
33476;DHT22;19814;48.224;11.422;2023-04-15T01:03:38;6.80;99.90
33476;DHT22;19814;48.224;11.422;2023-04-15T01:06:04;6.80;99.90
33476;DHT22;19814;48.224;11.422;2023-04-15T01:08:29;6.80;99.90
33476;DHT22;19814;48.224;11.422;2023-04-15T01:10:56;6.80;99.90
33476;DHT22;19814;48.224;11.422;2023-04-15T01:13:23;6.80;99.90
33476;DHT22;19814;48.224;11.422;2023-04-15T01:15:49;6.80;99.90
33476;DHT22;19814;48.224;11.422;2023-04-15T01:18:14;6.80;99.90
33476;DHT22;19814;48.224;11.422;2023-04-15T01:20:40;6.80;99.90
33476;DHT22;19814;48.224;11.422;2023-04-15T01:23:06;6.80;99.90
33476;DHT22;19814;48.224;11.422;2023-04-15T01:25:32;6.80;99.90
33476;DHT22;19814;48.224;11.422;2023-04-15T01:27:58;6.80;99.90
33476;DHT22;19814;48.224;11.422;2023-04-15T01:30:25;6.80;99.90
33476;DHT22;19814;48.224;11.422;2023-04-15T01:32:51;6.80;99.90
33476;DHT22;19814;48.224;11.422;2023-04-15T01:35:17;6.80;99.90
33476;DHT22;19814;48.224;11.422;2023-04-15T01:37:43;6.80;99.90
33476;DHT22;19814;48.224;11.422;2023-04-15T01:40:09;6.80;99.90
33476;DHT22;19814;48.224;11.422;2023-04-15T01:42:35;6.80;99.90
33476;DHT22;19814;48.224;11.422;2023-04-15T01:45:02;6.80;99.90
33476;DHT22;19814;48.224;11.422;2023-04-15T01:47:27;6.80;99.90
33476;DHT22;19814;48.224;11.422;2023-04-15T01:49:53;6.80;99.90
33476;DHT22;19814;48.224;11.422;2023-04-15T01:52:19;6.80;99.90
33476;DHT22;19814;48.224;11.422;2023-04-15T01:54:45;6.70;99.90
33476;DHT22;19814;48.224;11.422;2023-04-15T01:57:11;6.70;99.90
33476;DHT22;19814;48.224;11.422;2023-04-15T01:59:36;6.80;99.90
33476;DHT22;19814;48.224;11.422;2023-04-15T02:02:02;6.70;99.90
33476;DHT22;19814;48.224;11.422;2023-04-15T02:04:28;6.70;99.90
33476;DHT22;19814;48.224;11.422;2023-04-15T02:06:54;6.80;99.90
33476;DHT22;19814;48.224;11.422;2023-04-15T02:09:19;6.80;99.90
33476;DHT22;19814;48.224;11.422;2023-04-15T02:11:45;6.80;99.90
33476;DHT22;19814;48.224;11.422;2023-04-15T02:14:11;6.80;99.90
33476;DHT22;19814;48.224;11.422;2023-04-15T02:16:37;6.80;99.90
33476;DHT22;19814;48.224;11.422;2023-04-15T02:19:02;6.80;99.90
33476;DHT22;19814;48.224;11.422;2023-04-15T02:21:29;6.80;99.90
33476;DHT22;19814;48.224;11.422;2023-04-15T02:23:54;6.80;99.90
33476;DHT22;19814;48.224;11.422;2023-04-15T02:26:20;6.80;99.90
33476;DHT22;19814;48.224;11.422;2023-04-15T02:28:47;6.80;99.90
33476;DHT22;19814;48.224;11.422;2023-04-15T02:31:12;6.80;99.90
33476;DHT22;19814;48.224;11.422;2023-04-15T02:33:38;6.70;99.90
33476;DHT22;19814;48.224;11.422;2023-04-15T02:36:03;6.70;99.90
33476;DHT22;19814;48.224;11.422;2023-04-15T02:38:29;6.70;99.90
33476;DHT22;19814;48.224;11.422;2023-04-15T02:40:56;6.70;99.90
33476;DHT22;19814;48.224;11.422;2023-04-15T02:43:22;6.70;99.90
33476;DHT22;19814;48.224;11.422;2023-04-15T02:45:48;6.70;99.90
33476;DHT22;19814;48.224;11.422;2023-04-15T02:48:13;6.70;99.90
33476;DHT22;19814;48.224;11.422;2023-04-15T02:50:41;6.70;99.90
33476;DHT22;19814;48.224;11.422;2023-04-15T02:53:06;6.70;99.90
33476;DHT22;19814;48.224;11.422;2023-04-15T02:55:32;6.70;99.90
33476;DHT22;19814;48.224;11.422;2023-04-15T02:57:57;6.70;99.90
33476;DHT22;19814;48.224;11.422;2023-04-15T03:00:25;6.70;99.90
33476;DHT22;19814;48.224;11.422;2023-04-15T03:02:57;6.70;99.90
33476;DHT22;19814;48.224;11.422;2023-04-15T03:05:23;6.70;99.90
33476;DHT22;19814;48.224;11.422;2023-04-15T03:07:51;6.70;99.90
33476;DHT22;19814;48.224;11.422;2023-04-15T03:10:17;6.60;99.90
33476;DHT22;19814;48.224;11.422;2023-04-15T03:12:42;6.60;99.90
33476;DHT22;19814;48.224;11.422;2023-04-15T03:15:08;6.60;99.90
33476;DHT22;19814;48.224;11.422;2023-04-15T03:17:34;6.50;99.90
33476;DHT22;19814;48.224;11.422;2023-04-15T03:20:01;6.60;99.90
33476;DHT22;19814;48.224;11.422;2023-04-15T03:22:28;6.60;99.90
33476;DHT22;19814;48.224;11.422;2023-04-15T03:24:53;6.50;99.90
33476;DHT22;19814;48.224;11.422;2023-04-15T03:27:19;6.60;99.90
33476;DHT22;19814;48.224;11.422;2023-04-15T03:29:44;6.60;99.90
33476;DHT22;19814;48.224;11.422;2023-04-15T03:32:10;6.60;99.90
33476;DHT22;19814;48.224;11.422;2023-04-15T03:34:37;6.60;99.90
33476;DHT22;19814;48.224;11.422;2023-04-15T03:37:04;6.60;99.90
33476;DHT22;19814;48.224;11.422;2023-04-15T03:39:29;6.60;99.90
33476;DHT22;19814;48.224;11.422;2023-04-15T03:41:55;6.60;99.90
33476;DHT22;19814;48.224;11.422;2023-04-15T03:44:22;6.50;99.90
33476;DHT22;19814;48.224;11.422;2023-04-15T03:46:47;6.50;99.90
33476;DHT22;19814;48.224;11.422;2023-04-15T03:49:13;6.50;99.90
33476;DHT22;19814;48.224;11.422;2023-04-15T03:51:38;6.50;99.90
33476;DHT22;19814;48.224;11.422;2023-04-15T03:54:04;6.50;99.90
33476;DHT22;19814;48.224;11.422;2023-04-15T03:56:30;6.50;99.90
33476;DHT22;19814;48.224;11.422;2023-04-15T03:58:55;6.50;99.90
33476;DHT22;19814;48.224;11.422;2023-04-15T04:01:21;6.50;99.90
33476;DHT22;19814;48.224;11.422;2023-04-15T04:03:47;6.50;99.90
33476;DHT22;19814;48.224;11.422;2023-04-15T04:06:13;6.50;99.90
33476;DHT22;19814;48.224;11.422;2023-04-15T04:08:38;6.50;99.90
33476;DHT22;19814;48.224;11.422;2023-04-15T04:11:04;6.50;99.90
33476;DHT22;19814;48.224;11.422;2023-04-15T04:13:30;6.50;99.90
33476;DHT22;19814;48.224;11.422;2023-04-15T04:15:55;6.50;99.90
33476;DHT22;19814;48.224;11.422;2023-04-15T04:18:21;6.50;99.90
33476;DHT22;19814;48.224;11.422;2023-04-15T04:20:47;6.50;99.90
33476;DHT22;19814;48.224;11.422;2023-04-15T04:23:12;6.50;99.90
33476;DHT22;19814;48.224;11.422;2023-04-15T04:25:38;6.50;99.90
33476;DHT22;19814;48.224;11.422;2023-04-15T04:28:03;6.50;99.90
33476;DHT22;19814;48.224;11.422;2023-04-15T04:30:29;6.50;99.90
33476;DHT22;19814;48.224;11.422;2023-04-15T04:32:54;6.50;99.90
33476;DHT22;19814;48.224;11.422;2023-04-15T04:35:20;6.50;99.90
33476;DHT22;19814;48.224;11.422;2023-04-15T04:37:46;6.50;99.90
33476;DHT22;19814;48.224;11.422;2023-04-15T04:40:12;6.50;99.90
33476;DHT22;19814;48.224;11.422;2023-04-15T04:42:38;6.50;99.90
33476;DHT22;19814;48.224;11.422;2023-04-15T04:45:03;6.60;99.90
33476;DHT22;19814;48.224;11.422;2023-04-15T04:47:29;6.60;99.90
33476;DHT22;19814;48.224;11.422;2023-04-15T04:49:55;6.60;99.90
33476;DHT22;19814;48.224;11.422;2023-04-15T04:52:20;6.60;99.90
33476;DHT22;19814;48.224;11.422;2023-04-15T04:54:46;6.60;99.90
33476;DHT22;19814;48.224;11.422;2023-04-15T04:57:12;6.50;99.90
33476;DHT22;19814;48.224;11.422;2023-04-15T04:59:38;6.50;99.90
33476;DHT22;19814;48.224;11.422;2023-04-15T05:02:03;6.50;99.90
33476;DHT22;19814;48.224;11.422;2023-04-15T05:04:30;6.50;99.90
33476;DHT22;19814;48.224;11.422;2023-04-15T05:06:56;6.50;99.90
33476;DHT22;19814;48.224;11.422;2023-04-15T05:09:22;6.50;99.90
33476;DHT22;19814;48.224;11.422;2023-04-15T05:11:48;6.50;99.90
33476;DHT22;19814;48.224;11.422;2023-04-15T05:14:13;6.60;99.90
33476;DHT22;19814;48.224;11.422;2023-04-15T05:16:39;6.50;99.90
33476;DHT22;19814;48.224;11.422;2023-04-15T05:19:04;6.50;99.90
33476;DHT22;19814;48.224;11.422;2023-04-15T05:21:30;6.50;99.90
33476;DHT22;19814;48.224;11.422;2023-04-15T05:23:56;6.60;99.90
33476;DHT22;19814;48.224;11.422;2023-04-15T05:26:21;6.50;99.90
33476;DHT22;19814;48.224;11.422;2023-04-15T05:28:48;6.50;99.90
33476;DHT22;19814;48.224;11.422;2023-04-15T05:31:14;6.50;99.90
33476;DHT22;19814;48.224;11.422;2023-04-15T05:33:40;6.50;99.90
33476;DHT22;19814;48.224;11.422;2023-04-15T05:36:06;6.50;99.90
33476;DHT22;19814;48.224;11.422;2023-04-15T05:38:31;6.50;99.90
33476;DHT22;19814;48.224;11.422;2023-04-15T05:40:57;6.50;99.90
33476;DHT22;19814;48.224;11.422;2023-04-15T05:43:23;6.50;99.90
33476;DHT22;19814;48.224;11.422;2023-04-15T05:45:48;6.50;99.90
33476;DHT22;19814;48.224;11.422;2023-04-15T05:48:14;6.50;99.90
33476;DHT22;19814;48.224;11.422;2023-04-15T05:50:40;6.50;99.90
33476;DHT22;19814;48.224;11.422;2023-04-15T05:53:07;6.60;99.90
33476;DHT22;19814;48.224;11.422;2023-04-15T05:55:32;6.60;99.90
33476;DHT22;19814;48.224;11.422;2023-04-15T05:57:58;6.70;99.90
33476;DHT22;19814;48.224;11.422;2023-04-15T06:00:23;6.60;99.90
33476;DHT22;19814;48.224;11.422;2023-04-15T06:02:49;6.60;99.90
33476;DHT22;19814;48.224;11.422;2023-04-15T06:05:15;6.70;99.90
33476;DHT22;19814;48.224;11.422;2023-04-15T06:07:40;6.70;99.90
33476;DHT22;19814;48.224;11.422;2023-04-15T06:10:08;6.70;99.90
33476;DHT22;19814;48.224;11.422;2023-04-15T06:12:34;6.70;99.90
33476;DHT22;19814;48.224;11.422;2023-04-15T06:14:59;6.60;99.90
33476;DHT22;19814;48.224;11.422;2023-04-15T06:17:25;6.70;99.90
33476;DHT22;19814;48.224;11.422;2023-04-15T06:19:50;6.60;99.90
33476;DHT22;19814;48.224;11.422;2023-04-15T06:22:20;6.60;99.90
33476;DHT22;19814;48.224;11.422;2023-04-15T06:24:47;6.60;99.90
33476;DHT22;19814;48.224;11.422;2023-04-15T06:27:15;6.60;99.90
33476;DHT22;19814;48.224;11.422;2023-04-15T06:29:40;6.70;99.90
33476;DHT22;19814;48.224;11.422;2023-04-15T06:32:06;6.80;99.90
33476;DHT22;19814;48.224;11.422;2023-04-15T06:34:32;6.90;99.90
33476;DHT22;19814;48.224;11.422;2023-04-15T06:36:57;6.80;99.90
33476;DHT22;19814;48.224;11.422;2023-04-15T06:39:23;7.00;99.90
33476;DHT22;19814;48.224;11.422;2023-04-15T06:41:48;6.90;99.90
33476;DHT22;19814;48.224;11.422;2023-04-15T06:44:14;6.80;99.90
33476;DHT22;19814;48.224;11.422;2023-04-15T06:46:40;6.90;99.90
33476;DHT22;19814;48.224;11.422;2023-04-15T06:49:06;6.90;99.90
33476;DHT22;19814;48.224;11.422;2023-04-15T06:51:34;7.00;99.90
33476;DHT22;19814;48.224;11.422;2023-04-15T06:54:00;7.00;99.90
33476;DHT22;19814;48.224;11.422;2023-04-15T06:56:27;7.00;99.90
33476;DHT22;19814;48.224;11.422;2023-04-15T06:58:52;7.10;99.90
33476;DHT22;19814;48.224;11.422;2023-04-15T07:01:18;7.10;99.90
33476;DHT22;19814;48.224;11.422;2023-04-15T07:03:44;7.30;99.90
33476;DHT22;19814;48.224;11.422;2023-04-15T07:06:10;7.20;99.90
33476;DHT22;19814;48.224;11.422;2023-04-15T07:08:36;7.40;99.90
33476;DHT22;19814;48.224;11.422;2023-04-15T07:11:02;7.40;99.90
33476;DHT22;19814;48.224;11.422;2023-04-15T07:13:30;7.50;99.90
33476;DHT22;19814;48.224;11.422;2023-04-15T07:15:56;7.70;99.90
33476;DHT22;19814;48.224;11.422;2023-04-15T07:18:21;7.70;99.90
33476;DHT22;19814;48.224;11.422;2023-04-15T07:20:47;7.70;99.90
33476;DHT22;19814;48.224;11.422;2023-04-15T07:23:13;7.80;99.90
33476;DHT22;19814;48.224;11.422;2023-04-15T07:25:38;8.00;99.90
33476;DHT22;19814;48.224;11.422;2023-04-15T07:28:04;8.20;99.90
33476;DHT22;19814;48.224;11.422;2023-04-15T07:30:29;8.50;99.90
33476;DHT22;19814;48.224;11.422;2023-04-15T07:32:57;8.70;99.90
33476;DHT22;19814;48.224;11.422;2023-04-15T07:35:23;8.80;99.90
33476;DHT22;19814;48.224;11.422;2023-04-15T07:37:49;9.00;99.50
33476;DHT22;19814;48.224;11.422;2023-04-15T07:40:15;9.10;99.40
33476;DHT22;19814;48.224;11.422;2023-04-15T07:42:42;9.40;99.40
33476;DHT22;19814;48.224;11.422;2023-04-15T07:45:08;9.70;99.10
33476;DHT22;19814;48.224;11.422;2023-04-15T07:47:33;9.90;99.00
33476;DHT22;19814;48.224;11.422;2023-04-15T07:49:59;10.10;98.40
33476;DHT22;19814;48.224;11.422;2023-04-15T07:52:25;10.10;97.50
33476;DHT22;19814;48.224;11.422;2023-04-15T07:54:50;10.30;97.90
33476;DHT22;19814;48.224;11.422;2023-04-15T07:57:16;10.60;98.10
33476;DHT22;19814;48.224;11.422;2023-04-15T07:59:42;11.00;96.90
33476;DHT22;19814;48.224;11.422;2023-04-15T08:02:08;11.10;96.90
33476;DHT22;19814;48.224;11.422;2023-04-15T08:04:34;11.40;96.40
33476;DHT22;19814;48.224;11.422;2023-04-15T08:06:59;11.30;95.60
33476;DHT22;19814;48.224;11.422;2023-04-15T08:09:25;11.40;96.50
33476;DHT22;19814;48.224;11.422;2023-04-15T08:11:51;11.50;96.00
33476;DHT22;19814;48.224;11.422;2023-04-15T08:14:18;11.70;96.60
33476;DHT22;19814;48.224;11.422;2023-04-15T08:16:43;12.00;95.60
33476;DHT22;19814;48.224;11.422;2023-04-15T08:19:09;12.20;94.70
33476;DHT22;19814;48.224;11.422;2023-04-15T08:21:35;12.20;94.40
33476;DHT22;19814;48.224;11.422;2023-04-15T08:24:01;12.50;94.00
33476;DHT22;19814;48.224;11.422;2023-04-15T08:26:27;12.80;94.00
33476;DHT22;19814;48.224;11.422;2023-04-15T08:28:53;13.50;93.80
33476;DHT22;19814;48.224;11.422;2023-04-15T08:31:19;14.10;92.20
33476;DHT22;19814;48.224;11.422;2023-04-15T08:33:45;14.00;91.20
33476;DHT22;19814;48.224;11.422;2023-04-15T08:36:11;13.70;92.00
33476;DHT22;19814;48.224;11.422;2023-04-15T08:38:36;13.50;92.00
33476;DHT22;19814;48.224;11.422;2023-04-15T08:41:20;13.20;91.90
33476;DHT22;19814;48.224;11.422;2023-04-15T08:43:58;12.70;93.10
33476;DHT22;19814;48.224;11.422;2023-04-15T08:46:25;12.50;93.00
33476;DHT22;19814;48.224;11.422;2023-04-15T08:48:51;12.40;92.90
33476;DHT22;19814;48.224;11.422;2023-04-15T08:51:20;12.10;92.90
33476;DHT22;19814;48.224;11.422;2023-04-15T08:53:46;11.80;94.50
33476;DHT22;19814;48.224;11.422;2023-04-15T08:56:14;11.50;94.10
33476;DHT22;19814;48.224;11.422;2023-04-15T08:58:44;11.30;93.60
33476;DHT22;19814;48.224;11.422;2023-04-15T09:01:11;11.10;94.50
33476;DHT22;19814;48.224;11.422;2023-04-15T09:03:37;11.00;95.00
33476;DHT22;19814;48.224;11.422;2023-04-15T09:06:04;10.90;96.10
33476;DHT22;19814;48.224;11.422;2023-04-15T09:08:31;10.90;95.70
33476;DHT22;19814;48.224;11.422;2023-04-15T09:10:56;10.80;96.00
33476;DHT22;19814;48.224;11.422;2023-04-15T09:13:22;10.90;95.80
33476;DHT22;19814;48.224;11.422;2023-04-15T09:15:48;11.00;96.20
33476;DHT22;19814;48.224;11.422;2023-04-15T09:18:29;11.20;96.10
33476;DHT22;19814;48.224;11.422;2023-04-15T09:20:55;11.30;95.40
33476;DHT22;19814;48.224;11.422;2023-04-15T09:23:21;11.30;95.70
33476;DHT22;19814;48.224;11.422;2023-04-15T09:25:47;11.20;96.00
33476;DHT22;19814;48.224;11.422;2023-04-15T09:28:13;11.30;96.40
33476;DHT22;19814;48.224;11.422;2023-04-15T09:30:42;11.30;95.10
33476;DHT22;19814;48.224;11.422;2023-04-15T09:33:10;11.40;95.40
33476;DHT22;19814;48.224;11.422;2023-04-15T09:35:38;11.40;95.50
33476;DHT22;19814;48.224;11.422;2023-04-15T09:38:05;11.40;95.00
33476;DHT22;19814;48.224;11.422;2023-04-15T09:43:04;11.40;95.00
33476;DHT22;19814;48.224;11.422;2023-04-15T09:45:31;11.50;94.70
33476;DHT22;19814;48.224;11.422;2023-04-15T09:47:59;11.50;93.90
33476;DHT22;19814;48.224;11.422;2023-04-15T09:50:28;11.40;94.80
33476;DHT22;19814;48.224;11.422;2023-04-15T09:52:54;11.40;93.90
33476;DHT22;19814;48.224;11.422;2023-04-15T09:55:20;11.20;94.50
33476;DHT22;19814;48.224;11.422;2023-04-15T09:57:46;11.10;94.80
33476;DHT22;19814;48.224;11.422;2023-04-15T10:00:12;11.10;96.10
33476;DHT22;19814;48.224;11.422;2023-04-15T10:02:40;11.10;95.50
33476;DHT22;19814;48.224;11.422;2023-04-15T10:05:09;11.10;95.30
33476;DHT22;19814;48.224;11.422;2023-04-15T10:07:35;11.20;94.90
33476;DHT22;19814;48.224;11.422;2023-04-15T10:10:02;11.20;95.50
33476;DHT22;19814;48.224;11.422;2023-04-15T10:12:30;11.30;95.40
33476;DHT22;19814;48.224;11.422;2023-04-15T10:14:58;11.50;94.70
33476;DHT22;19814;48.224;11.422;2023-04-15T10:17:27;11.50;95.60
33476;DHT22;19814;48.224;11.422;2023-04-15T10:20:00;11.40;95.30
33476;DHT22;19814;48.224;11.422;2023-04-15T10:22:27;11.30;94.10
33476;DHT22;19814;48.224;11.422;2023-04-15T10:24:53;11.30;94.70
33476;DHT22;19814;48.224;11.422;2023-04-15T10:27:20;11.50;95.00
33476;DHT22;19814;48.224;11.422;2023-04-15T10:29:48;11.40;95.20
33476;DHT22;19814;48.224;11.422;2023-04-15T10:32:17;11.50;94.80
33476;DHT22;19814;48.224;11.422;2023-04-15T10:34:44;11.60;94.30
33476;DHT22;19814;48.224;11.422;2023-04-15T10:37:10;11.60;94.70
33476;DHT22;19814;48.224;11.422;2023-04-15T10:42:22;11.70;94.10
33476;DHT22;19814;48.224;11.422;2023-04-15T10:44:49;11.80;94.10
33476;DHT22;19814;48.224;11.422;2023-04-15T10:47:19;11.80;94.60
33476;DHT22;19814;48.224;11.422;2023-04-15T10:49:50;11.80;94.50
33476;DHT22;19814;48.224;11.422;2023-04-15T10:52:21;11.90;94.50
33476;DHT22;19814;48.224;11.422;2023-04-15T10:54:47;12.00;94.60
33476;DHT22;19814;48.224;11.422;2023-04-15T11:00:00;11.90;93.50
33476;DHT22;19814;48.224;11.422;2023-04-15T11:02:54;11.60;94.40
33476;DHT22;19814;48.224;11.422;2023-04-15T11:05:22;11.40;94.90
33476;DHT22;19814;48.224;11.422;2023-04-15T11:08:08;11.40;94.50
33476;DHT22;19814;48.224;11.422;2023-04-15T11:13:02;11.00;96.50
33476;DHT22;19814;48.224;11.422;2023-04-15T11:15:32;10.90;96.10
33476;DHT22;19814;48.224;11.422;2023-04-15T11:18:11;10.80;96.00
33476;DHT22;19814;48.224;11.422;2023-04-15T11:20:39;10.70;97.60
33476;DHT22;19814;48.224;11.422;2023-04-15T11:23:05;10.70;98.40
33476;DHT22;19814;48.224;11.422;2023-04-15T11:25:33;10.70;98.80
33476;DHT22;19814;48.224;11.422;2023-04-15T11:28:00;10.70;98.20
33476;DHT22;19814;48.224;11.422;2023-04-15T11:30:28;10.80;98.10
33476;DHT22;19814;48.224;11.422;2023-04-15T11:32:57;10.90;97.50
33476;DHT22;19814;48.224;11.422;2023-04-15T11:35:23;10.90;96.40
33476;DHT22;19814;48.224;11.422;2023-04-15T11:37:49;10.80;97.30
33476;DHT22;19814;48.224;11.422;2023-04-15T11:40:16;10.70;97.40
33476;DHT22;19814;48.224;11.422;2023-04-15T11:42:44;10.70;97.20
33476;DHT22;19814;48.224;11.422;2023-04-15T11:45:14;10.70;97.50
33476;DHT22;19814;48.224;11.422;2023-04-15T11:47:41;10.70;98.00
33476;DHT22;19814;48.224;11.422;2023-04-15T11:50:33;10.80;97.00
33476;DHT22;19814;48.224;11.422;2023-04-15T11:53:01;10.80;97.60
33476;DHT22;19814;48.224;11.422;2023-04-15T11:55:27;10.90;96.80
33476;DHT22;19814;48.224;11.422;2023-04-15T11:58:12;10.80;95.90
33476;DHT22;19814;48.224;11.422;2023-04-15T12:00:39;10.80;94.90
33476;DHT22;19814;48.224;11.422;2023-04-15T12:03:26;10.70;95.70
33476;DHT22;19814;48.224;11.422;2023-04-15T12:06:15;10.60;95.70
33476;DHT22;19814;48.224;11.422;2023-04-15T12:11:26;10.80;94.40
33476;DHT22;19814;48.224;11.422;2023-04-15T12:13:57;10.90;94.20
33476;DHT22;19814;48.224;11.422;2023-04-15T12:16:24;11.00;94.30
33476;DHT22;19814;48.224;11.422;2023-04-15T12:18:54;11.10;94.80
33476;DHT22;19814;48.224;11.422;2023-04-15T12:21:24;11.20;93.80
33476;DHT22;19814;48.224;11.422;2023-04-15T12:23:52;11.40;93.70
33476;DHT22;19814;48.224;11.422;2023-04-15T12:26:18;11.40;91.50
33476;DHT22;19814;48.224;11.422;2023-04-15T12:29:09;11.30;92.90
33476;DHT22;19814;48.224;11.422;2023-04-15T12:31:34;11.40;93.50
33476;DHT22;19814;48.224;11.422;2023-04-15T12:34:01;11.30;91.40
33476;DHT22;19814;48.224;11.422;2023-04-15T12:36:28;11.20;93.00
33476;DHT22;19814;48.224;11.422;2023-04-15T12:38:55;11.00;92.60
33476;DHT22;19814;48.224;11.422;2023-04-15T12:41:21;10.90;92.10
33476;DHT22;19814;48.224;11.422;2023-04-15T12:43:48;10.70;92.10
33476;DHT22;19814;48.224;11.422;2023-04-15T12:46:14;10.60;91.90
33476;DHT22;19814;48.224;11.422;2023-04-15T12:48:40;10.50;92.90
33476;DHT22;19814;48.224;11.422;2023-04-15T12:51:06;10.50;92.20
33476;DHT22;19814;48.224;11.422;2023-04-15T12:53:31;10.40;92.20
33476;DHT22;19814;48.224;11.422;2023-04-15T12:55:57;10.40;93.10
33476;DHT22;19814;48.224;11.422;2023-04-15T12:58:22;10.20;92.90
33476;DHT22;19814;48.224;11.422;2023-04-15T13:00:48;10.10;92.80
33476;DHT22;19814;48.224;11.422;2023-04-15T13:03:14;10.00;94.10
33476;DHT22;19814;48.224;11.422;2023-04-15T13:05:40;10.00;93.70
33476;DHT22;19814;48.224;11.422;2023-04-15T13:08:06;10.10;94.00
33476;DHT22;19814;48.224;11.422;2023-04-15T13:10:32;10.00;93.50
33476;DHT22;19814;48.224;11.422;2023-04-15T13:12:58;10.10;93.50
33476;DHT22;19814;48.224;11.422;2023-04-15T13:15:23;10.10;93.20
33476;DHT22;19814;48.224;11.422;2023-04-15T13:17:50;10.20;94.40
33476;DHT22;19814;48.224;11.422;2023-04-15T13:20:15;10.10;94.00
33476;DHT22;19814;48.224;11.422;2023-04-15T13:22:41;10.10;93.30
33476;DHT22;19814;48.224;11.422;2023-04-15T13:25:07;10.20;93.60
33476;DHT22;19814;48.224;11.422;2023-04-15T13:27:33;10.10;93.90
33476;DHT22;19814;48.224;11.422;2023-04-15T13:29:59;9.90;94.50
33476;DHT22;19814;48.224;11.422;2023-04-15T13:32:25;9.90;95.20
33476;DHT22;19814;48.224;11.422;2023-04-15T13:34:51;9.80;95.60
33476;DHT22;19814;48.224;11.422;2023-04-15T13:37:16;9.80;95.60
33476;DHT22;19814;48.224;11.422;2023-04-15T13:39:42;9.80;96.10
33476;DHT22;19814;48.224;11.422;2023-04-15T13:42:08;9.70;96.80
33476;DHT22;19814;48.224;11.422;2023-04-15T13:44:34;9.60;97.10
33476;DHT22;19814;48.224;11.422;2023-04-15T13:46:59;9.60;96.50
33476;DHT22;19814;48.224;11.422;2023-04-15T13:49:25;9.60;96.80
33476;DHT22;19814;48.224;11.422;2023-04-15T13:51:51;9.50;96.90
33476;DHT22;19814;48.224;11.422;2023-04-15T13:54:16;9.50;95.80
33476;DHT22;19814;48.224;11.422;2023-04-15T13:56:42;9.50;95.80
33476;DHT22;19814;48.224;11.422;2023-04-15T13:59:07;9.50;95.90
33476;DHT22;19814;48.224;11.422;2023-04-15T14:01:33;9.50;95.70
33476;DHT22;19814;48.224;11.422;2023-04-15T14:03:59;9.60;95.10
33476;DHT22;19814;48.224;11.422;2023-04-15T14:06:25;9.70;94.60
33476;DHT22;19814;48.224;11.422;2023-04-15T14:08:51;9.70;95.40
33476;DHT22;19814;48.224;11.422;2023-04-15T14:11:17;9.80;95.20
33476;DHT22;19814;48.224;11.422;2023-04-15T14:13:43;9.80;94.70
33476;DHT22;19814;48.224;11.422;2023-04-15T14:16:08;9.80;96.20
33476;DHT22;19814;48.224;11.422;2023-04-15T14:18:34;9.90;95.90
33476;DHT22;19814;48.224;11.422;2023-04-15T14:21:01;10.00;95.50
33476;DHT22;19814;48.224;11.422;2023-04-15T14:23:27;10.00;95.60
33476;DHT22;19814;48.224;11.422;2023-04-15T14:25:53;10.00;95.20
33476;DHT22;19814;48.224;11.422;2023-04-15T14:28:18;10.00;95.70
33476;DHT22;19814;48.224;11.422;2023-04-15T14:30:44;9.90;95.90
33476;DHT22;19814;48.224;11.422;2023-04-15T14:33:10;9.90;95.80
33476;DHT22;19814;48.224;11.422;2023-04-15T14:35:35;9.90;96.10
33476;DHT22;19814;48.224;11.422;2023-04-15T14:38:02;9.80;97.30
33476;DHT22;19814;48.224;11.422;2023-04-15T14:40:27;9.80;95.90
33476;DHT22;19814;48.224;11.422;2023-04-15T14:42:53;9.70;97.30
33476;DHT22;19814;48.224;11.422;2023-04-15T14:45:18;9.60;98.10
33476;DHT22;19814;48.224;11.422;2023-04-15T14:47:44;9.50;98.10
33476;DHT22;19814;48.224;11.422;2023-04-15T14:50:10;9.30;98.60
33476;DHT22;19814;48.224;11.422;2023-04-15T14:52:35;9.20;98.90
33476;DHT22;19814;48.224;11.422;2023-04-15T14:55:08;9.00;99.80
33476;DHT22;19814;48.224;11.422;2023-04-15T14:57:37;9.00;99.90
33476;DHT22;19814;48.224;11.422;2023-04-15T15:00:04;9.00;99.90
33476;DHT22;19814;48.224;11.422;2023-04-15T15:02:32;8.90;99.90
33476;DHT22;19814;48.224;11.422;2023-04-15T15:04:58;8.70;99.60
33476;DHT22;19814;48.224;11.422;2023-04-15T15:07:23;8.60;99.90
33476;DHT22;19814;48.224;11.422;2023-04-15T15:09:49;8.40;99.90
33476;DHT22;19814;48.224;11.422;2023-04-15T15:12:14;8.30;99.90
33476;DHT22;19814;48.224;11.422;2023-04-15T15:14:40;8.20;99.90
33476;DHT22;19814;48.224;11.422;2023-04-15T15:17:06;8.10;99.90
33476;DHT22;19814;48.224;11.422;2023-04-15T15:19:32;8.10;99.90
33476;DHT22;19814;48.224;11.422;2023-04-15T15:21:58;8.10;99.90
33476;DHT22;19814;48.224;11.422;2023-04-15T15:24:23;8.20;99.90
33476;DHT22;19814;48.224;11.422;2023-04-15T15:26:49;8.20;99.90
33476;DHT22;19814;48.224;11.422;2023-04-15T15:29:14;8.20;99.90
33476;DHT22;19814;48.224;11.422;2023-04-15T15:31:40;8.20;99.90
33476;DHT22;19814;48.224;11.422;2023-04-15T15:34:05;8.20;99.90